Terminal Aerodrome Forecast
Issued by NWS

Home | Current Version | Previous Version | Text Only | Print | Product List | Glossary On
Versions: 1 2 3 4 5 6 7 8 9 10 11 12 13 14 15 16 17 18 19 20 21 22 23 24 25 26 27 28 29 30 31 32
000
FTUS41 KBGM 161123
TAFRME
TAF
KRME 161123Z 1612/1712 12008KT P6SM BKN100 WS020/19040KT
     FM161400 14014G22KT P6SM BKN050 OVC100
     FM161800 15013G24KT P6SM OVC028
     FM162100 12011KT 2SM +RA BR OVC020
     FM170500 31009KT 3SM RA BR OVC015
     AMD NOT SKED=

USA.gov is the U.S. government's official web portal to all federal, state and local government web resources and services.